sensor_id;sensor_type;location;lat;lon;timestamp;P1;durP1;ratioP1;P2;durP2;ratioP2
17091;SDS011;8661;45.700;4.880;2023-03-23T00:01:23;3.97;;;2.60;;
17091;SDS011;8661;45.700;4.880;2023-03-23T00:03:52;5.53;;;2.53;;
17091;SDS011;8661;45.700;4.880;2023-03-23T00:06:22;4.13;;;2.60;;
17091;SDS011;8661;45.700;4.880;2023-03-23T00:08:51;3.40;;;2.70;;
17091;SDS011;8661;45.700;4.880;2023-03-23T00:11:24;3.20;;;2.60;;
17091;SDS011;8661;45.700;4.880;2023-03-23T00:13:54;4.27;;;2.57;;
17091;SDS011;8661;45.700;4.880;2023-03-23T00:16:26;2.87;;;2.40;;
17091;SDS011;8661;45.700;4.880;2023-03-23T00:18:55;3.50;;;2.40;;
17091;SDS011;8661;45.700;4.880;2023-03-23T00:21:24;5.10;;;2.60;;
17091;SDS011;8661;45.700;4.880;2023-03-23T00:24:00;4.87;;;2.53;;
17091;SDS011;8661;45.700;4.880;2023-03-23T00:26:28;3.73;;;2.47;;
17091;SDS011;8661;45.700;4.880;2023-03-23T00:28:58;4.20;;;2.73;;
17091;SDS011;8661;45.700;4.880;2023-03-23T00:31:26;2.77;;;2.13;;
17091;SDS011;8661;45.700;4.880;2023-03-23T00:33:56;4.70;;;3.00;;
17091;SDS011;8661;45.700;4.880;2023-03-23T00:36:26;5.80;;;2.40;;
17091;SDS011;8661;45.700;4.880;2023-03-23T00:38:54;3.70;;;2.23;;
17091;SDS011;8661;45.700;4.880;2023-03-23T00:41:25;5.17;;;2.50;;
17091;SDS011;8661;45.700;4.880;2023-03-23T00:43:53;3.30;;;1.97;;
17091;SDS011;8661;45.700;4.880;2023-03-23T00:46:21;2.40;;;1.97;;
17091;SDS011;8661;45.700;4.880;2023-03-23T00:48:48;4.30;;;2.30;;
17091;SDS011;8661;45.700;4.880;2023-03-23T00:51:18;4.47;;;2.13;;
17091;SDS011;8661;45.700;4.880;2023-03-23T00:53:45;3.33;;;2.07;;
17091;SDS011;8661;45.700;4.880;2023-03-23T00:56:13;3.97;;;2.00;;
17091;SDS011;8661;45.700;4.880;2023-03-23T00:58:42;2.23;;;1.83;;
17091;SDS011;8661;45.700;4.880;2023-03-23T01:01:09;5.80;;;2.10;;
17091;SDS011;8661;45.700;4.880;2023-03-23T01:03:36;2.20;;;1.90;;
17091;SDS011;8661;45.700;4.880;2023-03-23T01:06:04;2.73;;;2.10;;
17091;SDS011;8661;45.700;4.880;2023-03-23T01:08:33;2.53;;;2.00;;
17091;SDS011;8661;45.700;4.880;2023-03-23T01:11:02;3.93;;;2.20;;
17091;SDS011;8661;45.700;4.880;2023-03-23T01:13:30;2.80;;;2.00;;
17091;SDS011;8661;45.700;4.880;2023-03-23T01:15:58;2.83;;;1.80;;
17091;SDS011;8661;45.700;4.880;2023-03-23T01:18:25;3.20;;;1.87;;
17091;SDS011;8661;45.700;4.880;2023-03-23T01:20:52;3.33;;;2.30;;
17091;SDS011;8661;45.700;4.880;2023-03-23T01:23:19;3.70;;;1.90;;
17091;SDS011;8661;45.700;4.880;2023-03-23T01:25:46;7.17;;;2.80;;
17091;SDS011;8661;45.700;4.880;2023-03-23T01:28:14;2.90;;;2.17;;
17091;SDS011;8661;45.700;4.880;2023-03-23T01:30:41;5.30;;;2.13;;
17091;SDS011;8661;45.700;4.880;2023-03-23T01:33:09;5.07;;;2.20;;
17091;SDS011;8661;45.700;4.880;2023-03-23T01:35:37;3.10;;;2.00;;
17091;SDS011;8661;45.700;4.880;2023-03-23T01:38:04;3.73;;;2.37;;
17091;SDS011;8661;45.700;4.880;2023-03-23T01:40:31;3.93;;;1.87;;
17091;SDS011;8661;45.700;4.880;2023-03-23T01:42:58;3.00;;;2.10;;
17091;SDS011;8661;45.700;4.880;2023-03-23T01:45:26;3.07;;;1.87;;
17091;SDS011;8661;45.700;4.880;2023-03-23T01:47:57;2.30;;;2.10;;
17091;SDS011;8661;45.700;4.880;2023-03-23T01:50:40;2.73;;;1.90;;
17091;SDS011;8661;45.700;4.880;2023-03-23T01:53:12;3.50;;;1.83;;
17091;SDS011;8661;45.700;4.880;2023-03-23T01:55:40;3.30;;;1.90;;
17091;SDS011;8661;45.700;4.880;2023-03-23T01:58:09;3.47;;;1.90;;
17091;SDS011;8661;45.700;4.880;2023-03-23T02:00:38;2.67;;;2.00;;
17091;SDS011;8661;45.700;4.880;2023-03-23T02:03:07;3.90;;;2.00;;
17091;SDS011;8661;45.700;4.880;2023-03-23T02:05:40;2.67;;;1.60;;
17091;SDS011;8661;45.700;4.880;2023-03-23T02:08:08;3.47;;;1.90;;
17091;SDS011;8661;45.700;4.880;2023-03-23T02:10:37;2.37;;;1.97;;
17091;SDS011;8661;45.700;4.880;2023-03-23T02:13:04;4.53;;;1.77;;
17091;SDS011;8661;45.700;4.880;2023-03-23T02:15:34;4.87;;;1.93;;
17091;SDS011;8661;45.700;4.880;2023-03-23T02:18:09;3.03;;;1.80;;
17091;SDS011;8661;45.700;4.880;2023-03-23T02:20:52;3.40;;;2.00;;
17091;SDS011;8661;45.700;4.880;2023-03-23T02:23:57;5.00;;;2.13;;
17091;SDS011;8661;45.700;4.880;2023-03-23T02:26:57;4.77;;;1.90;;
17091;SDS011;8661;45.700;4.880;2023-03-23T02:29:44;2.97;;;1.60;;
17091;SDS011;8661;45.700;4.880;2023-03-23T02:32:34;4.43;;;2.00;;
17091;SDS011;8661;45.700;4.880;2023-03-23T02:35:35;3.50;;;1.80;;
17091;SDS011;8661;45.700;4.880;2023-03-23T02:38:06;3.93;;;1.83;;
17091;SDS011;8661;45.700;4.880;2023-03-23T02:40:40;3.70;;;1.80;;
17091;SDS011;8661;45.700;4.880;2023-03-23T02:43:10;5.17;;;1.90;;
17091;SDS011;8661;45.700;4.880;2023-03-23T02:45:40;2.93;;;1.70;;
17091;SDS011;8661;45.700;4.880;2023-03-23T02:48:10;5.23;;;1.70;;
17091;SDS011;8661;45.700;4.880;2023-03-23T02:50:42;1.90;;;1.70;;
17091;SDS011;8661;45.700;4.880;2023-03-23T02:53:12;3.03;;;1.80;;
17091;SDS011;8661;45.700;4.880;2023-03-23T02:55:42;3.47;;;1.83;;
17091;SDS011;8661;45.700;4.880;2023-03-23T02:58:11;4.03;;;1.80;;
17091;SDS011;8661;45.700;4.880;2023-03-23T03:00:38;2.33;;;1.73;;
17091;SDS011;8661;45.700;4.880;2023-03-23T03:03:05;2.97;;;1.63;;
17091;SDS011;8661;45.700;4.880;2023-03-23T03:05:38;3.50;;;1.80;;
17091;SDS011;8661;45.700;4.880;2023-03-23T03:08:12;2.30;;;1.73;;
17091;SDS011;8661;45.700;4.880;2023-03-23T03:10:46;2.60;;;2.10;;
17091;SDS011;8661;45.700;4.880;2023-03-23T03:13:22;1.83;;;1.60;;
17091;SDS011;8661;45.700;4.880;2023-03-23T03:15:59;2.13;;;1.60;;
17091;SDS011;8661;45.700;4.880;2023-03-23T03:18:32;2.20;;;1.83;;
17091;SDS011;8661;45.700;4.880;2023-03-23T03:21:06;2.47;;;1.77;;
17091;SDS011;8661;45.700;4.880;2023-03-23T03:23:38;4.07;;;1.90;;
17091;SDS011;8661;45.700;4.880;2023-03-23T03:26:06;1.90;;;1.60;;
17091;SDS011;8661;45.700;4.880;2023-03-23T03:28:35;2.77;;;1.97;;
17091;SDS011;8661;45.700;4.880;2023-03-23T03:31:03;4.27;;;1.80;;
17091;SDS011;8661;45.700;4.880;2023-03-23T03:33:31;2.83;;;1.53;;
17091;SDS011;8661;45.700;4.880;2023-03-23T03:35:59;2.93;;;1.47;;
17091;SDS011;8661;45.700;4.880;2023-03-23T03:38:40;2.57;;;1.70;;
17091;SDS011;8661;45.700;4.880;2023-03-23T03:41:07;2.60;;;1.90;;
17091;SDS011;8661;45.700;4.880;2023-03-23T03:43:34;4.30;;;1.60;;
17091;SDS011;8661;45.700;4.880;2023-03-23T03:46:01;2.27;;;1.60;;
17091;SDS011;8661;45.700;4.880;2023-03-23T03:48:28;3.23;;;1.77;;
17091;SDS011;8661;45.700;4.880;2023-03-23T03:50:55;4.23;;;1.93;;
17091;SDS011;8661;45.700;4.880;2023-03-23T03:53:22;3.50;;;1.87;;
17091;SDS011;8661;45.700;4.880;2023-03-23T03:55:51;1.97;;;1.50;;
17091;SDS011;8661;45.700;4.880;2023-03-23T03:58:20;2.53;;;1.70;;
17091;SDS011;8661;45.700;4.880;2023-03-23T04:00:47;2.00;;;1.53;;
17091;SDS011;8661;45.700;4.880;2023-03-23T04:03:15;2.33;;;1.60;;
17091;SDS011;8661;45.700;4.880;2023-03-23T04:05:42;4.37;;;1.83;;
17091;SDS011;8661;45.700;4.880;2023-03-23T04:08:09;2.00;;;1.50;;
17091;SDS011;8661;45.700;4.880;2023-03-23T04:10:36;4.87;;;1.77;;
17091;SDS011;8661;45.700;4.880;2023-03-23T04:13:05;2.30;;;1.60;;
17091;SDS011;8661;45.700;4.880;2023-03-23T04:15:32;2.77;;;1.70;;
17091;SDS011;8661;45.700;4.880;2023-03-23T04:17:59;2.00;;;1.60;;
17091;SDS011;8661;45.700;4.880;2023-03-23T04:20:26;2.37;;;1.50;;
17091;SDS011;8661;45.700;4.880;2023-03-23T04:22:53;1.83;;;1.50;;
17091;SDS011;8661;45.700;4.880;2023-03-23T04:25:20;2.83;;;1.67;;
17091;SDS011;8661;45.700;4.880;2023-03-23T04:27:47;2.80;;;1.53;;
17091;SDS011;8661;45.700;4.880;2023-03-23T04:30:19;1.60;;;1.33;;
17091;SDS011;8661;45.700;4.880;2023-03-23T04:32:47;2.40;;;1.50;;
17091;SDS011;8661;45.700;4.880;2023-03-23T04:35:17;4.67;;;1.50;;
17091;SDS011;8661;45.700;4.880;2023-03-23T04:37:46;2.57;;;1.70;;
17091;SDS011;8661;45.700;4.880;2023-03-23T04:40:15;3.13;;;1.50;;
17091;SDS011;8661;45.700;4.880;2023-03-23T04:42:42;2.00;;;1.53;;
17091;SDS011;8661;45.700;4.880;2023-03-23T04:45:12;2.10;;;1.60;;
17091;SDS011;8661;45.700;4.880;2023-03-23T04:47:48;2.30;;;1.30;;
17091;SDS011;8661;45.700;4.880;2023-03-23T04:50:18;4.07;;;1.50;;
17091;SDS011;8661;45.700;4.880;2023-03-23T04:52:46;2.50;;;1.40;;
17091;SDS011;8661;45.700;4.880;2023-03-23T04:55:13;2.77;;;1.63;;
17091;SDS011;8661;45.700;4.880;2023-03-23T04:57:40;1.53;;;1.33;;
17091;SDS011;8661;45.700;4.880;2023-03-23T05:00:08;3.67;;;1.50;;
17091;SDS011;8661;45.700;4.880;2023-03-23T05:02:39;3.03;;;1.50;;
17091;SDS011;8661;45.700;4.880;2023-03-23T05:05:08;1.73;;;1.40;;
17091;SDS011;8661;45.700;4.880;2023-03-23T05:07:37;1.73;;;1.20;;
17091;SDS011;8661;45.700;4.880;2023-03-23T05:10:05;2.17;;;1.27;;
17091;SDS011;8661;45.700;4.880;2023-03-23T05:12:33;2.73;;;1.70;;
17091;SDS011;8661;45.700;4.880;2023-03-23T05:15:00;1.40;;;1.30;;
17091;SDS011;8661;45.700;4.880;2023-03-23T05:17:28;4.27;;;1.60;;
17091;SDS011;8661;45.700;4.880;2023-03-23T05:19:55;2.17;;;1.40;;
17091;SDS011;8661;45.700;4.880;2023-03-23T05:22:24;2.87;;;1.30;;
17091;SDS011;8661;45.700;4.880;2023-03-23T05:24:53;3.40;;;1.53;;
17091;SDS011;8661;45.700;4.880;2023-03-23T05:27:20;2.07;;;1.70;;
17091;SDS011;8661;45.700;4.880;2023-03-23T05:29:47;2.00;;;1.43;;
17091;SDS011;8661;45.700;4.880;2023-03-23T05:32:14;3.10;;;1.40;;
17091;SDS011;8661;45.700;4.880;2023-03-23T05:34:42;2.57;;;1.40;;
17091;SDS011;8661;45.700;4.880;2023-03-23T05:37:12;2.53;;;1.60;;
17091;SDS011;8661;45.700;4.880;2023-03-23T05:39:43;3.37;;;1.80;;
17091;SDS011;8661;45.700;4.880;2023-03-23T05:42:12;2.03;;;1.50;;
17091;SDS011;8661;45.700;4.880;2023-03-23T05:44:38;1.97;;;1.53;;
17091;SDS011;8661;45.700;4.880;2023-03-23T05:47:05;4.17;;;1.60;;
17091;SDS011;8661;45.700;4.880;2023-03-23T05:49:32;3.37;;;1.40;;
17091;SDS011;8661;45.700;4.880;2023-03-23T05:52:01;3.23;;;1.50;;
17091;SDS011;8661;45.700;4.880;2023-03-23T05:54:28;2.67;;;1.60;;
17091;SDS011;8661;45.700;4.880;2023-03-23T05:56:56;2.77;;;1.57;;
17091;SDS011;8661;45.700;4.880;2023-03-23T05:59:23;3.03;;;1.70;;
17091;SDS011;8661;45.700;4.880;2023-03-23T06:01:50;3.87;;;1.60;;
17091;SDS011;8661;45.700;4.880;2023-03-23T06:04:18;1.97;;;1.40;;
17091;SDS011;8661;45.700;4.880;2023-03-23T06:06:46;2.87;;;1.40;;
17091;SDS011;8661;45.700;4.880;2023-03-23T06:09:12;3.67;;;1.60;;
17091;SDS011;8661;45.700;4.880;2023-03-23T06:11:39;2.03;;;1.63;;
17091;SDS011;8661;45.700;4.880;2023-03-23T06:14:07;3.50;;;1.80;;
17091;SDS011;8661;45.700;4.880;2023-03-23T06:16:34;7.63;;;1.40;;
17091;SDS011;8661;45.700;4.880;2023-03-23T06:19:01;2.20;;;1.77;;
17091;SDS011;8661;45.700;4.880;2023-03-23T06:21:29;2.63;;;1.50;;
17091;SDS011;8661;45.700;4.880;2023-03-23T06:23:56;4.13;;;1.97;;
17091;SDS011;8661;45.700;4.880;2023-03-23T06:26:25;2.00;;;1.60;;
17091;SDS011;8661;45.700;4.880;2023-03-23T06:28:57;2.60;;;1.57;;
17091;SDS011;8661;45.700;4.880;2023-03-23T06:31:26;3.27;;;1.83;;
17091;SDS011;8661;45.700;4.880;2023-03-23T06:33:53;3.40;;;1.77;;
17091;SDS011;8661;45.700;4.880;2023-03-23T06:36:21;3.07;;;1.53;;
17091;SDS011;8661;45.700;4.880;2023-03-23T06:38:48;2.53;;;1.50;;
17091;SDS011;8661;45.700;4.880;2023-03-23T06:41:15;2.43;;;1.60;;
17091;SDS011;8661;45.700;4.880;2023-03-23T06:43:42;6.57;;;1.80;;
17091;SDS011;8661;45.700;4.880;2023-03-23T06:46:11;1.90;;;1.37;;
17091;SDS011;8661;45.700;4.880;2023-03-23T06:48:39;2.63;;;1.87;;
17091;SDS011;8661;45.700;4.880;2023-03-23T06:51:06;4.10;;;2.03;;
17091;SDS011;8661;45.700;4.880;2023-03-23T06:53:33;5.27;;;1.70;;
17091;SDS011;8661;45.700;4.880;2023-03-23T06:56:00;3.03;;;1.67;;
17091;SDS011;8661;45.700;4.880;2023-03-23T06:58:27;2.37;;;1.53;;
17091;SDS011;8661;45.700;4.880;2023-03-23T07:00:54;4.57;;;1.70;;
17091;SDS011;8661;45.700;4.880;2023-03-23T07:03:23;3.53;;;2.20;;
17091;SDS011;8661;45.700;4.880;2023-03-23T07:05:54;2.47;;;1.80;;
17091;SDS011;8661;45.700;4.880;2023-03-23T07:08:21;2.53;;;1.63;;
17091;SDS011;8661;45.700;4.880;2023-03-23T07:10:50;3.83;;;1.93;;
17091;SDS011;8661;45.700;4.880;2023-03-23T07:13:18;3.87;;;1.70;;
17091;SDS011;8661;45.700;4.880;2023-03-23T07:15:45;1.93;;;1.70;;
17091;SDS011;8661;45.700;4.880;2023-03-23T07:18:13;3.50;;;1.80;;
17091;SDS011;8661;45.700;4.880;2023-03-23T07:20:40;4.90;;;1.90;;
17091;SDS011;8661;45.700;4.880;2023-03-23T07:23:08;3.20;;;1.83;;
17091;SDS011;8661;45.700;4.880;2023-03-23T07:25:35;1.90;;;1.60;;
17091;SDS011;8661;45.700;4.880;2023-03-23T07:28:03;1.93;;;1.50;;
17091;SDS011;8661;45.700;4.880;2023-03-23T07:30:31;1.63;;;1.50;;
17091;SDS011;8661;45.700;4.880;2023-03-23T07:32:59;3.00;;;1.83;;
17091;SDS011;8661;45.700;4.880;2023-03-23T07:35:30;3.70;;;1.93;;
17091;SDS011;8661;45.700;4.880;2023-03-23T07:37:56;4.20;;;1.80;;
17091;SDS011;8661;45.700;4.880;2023-03-23T07:40:25;3.57;;;1.73;;
17091;SDS011;8661;45.700;4.880;2023-03-23T07:42:53;2.60;;;2.00;;
17091;SDS011;8661;45.700;4.880;2023-03-23T07:45:23;2.57;;;1.70;;
17091;SDS011;8661;45.700;4.880;2023-03-23T07:47:50;2.00;;;1.73;;
17091;SDS011;8661;45.700;4.880;2023-03-23T07:50:18;2.37;;;1.83;;
17091;SDS011;8661;45.700;4.880;2023-03-23T07:52:47;2.67;;;2.00;;
17091;SDS011;8661;45.700;4.880;2023-03-23T07:55:14;2.70;;;1.80;;
17091;SDS011;8661;45.700;4.880;2023-03-23T07:57:44;3.50;;;1.67;;
17091;SDS011;8661;45.700;4.880;2023-03-23T08:00:12;4.07;;;1.77;;
17091;SDS011;8661;45.700;4.880;2023-03-23T08:02:44;2.53;;;1.90;;
17091;SDS011;8661;45.700;4.880;2023-03-23T08:05:11;6.10;;;2.40;;
17091;SDS011;8661;45.700;4.880;2023-03-23T08:07:39;2.23;;;1.70;;
17091;SDS011;8661;45.700;4.880;2023-03-23T08:10:06;2.27;;;1.70;;
17091;SDS011;8661;45.700;4.880;2023-03-23T08:12:36;2.47;;;1.50;;
17091;SDS011;8661;45.700;4.880;2023-03-23T08:15:05;5.57;;;2.37;;
17091;SDS011;8661;45.700;4.880;2023-03-23T08:17:33;2.73;;;1.80;;
17091;SDS011;8661;45.700;4.880;2023-03-23T08:20:01;4.47;;;2.07;;
17091;SDS011;8661;45.700;4.880;2023-03-23T08:22:37;3.93;;;1.83;;
17091;SDS011;8661;45.700;4.880;2023-03-23T08:25:05;3.03;;;1.87;;
17091;SDS011;8661;45.700;4.880;2023-03-23T08:27:34;2.13;;;1.80;;
17091;SDS011;8661;45.700;4.880;2023-03-23T08:30:01;3.50;;;2.10;;
17091;SDS011;8661;45.700;4.880;2023-03-23T08:32:33;3.60;;;1.87;;
17091;SDS011;8661;45.700;4.880;2023-03-23T08:35:01;3.80;;;2.00;;
17091;SDS011;8661;45.700;4.880;2023-03-23T08:37:28;3.50;;;2.00;;
17091;SDS011;8661;45.700;4.880;2023-03-23T08:39:55;3.00;;;2.00;;
17091;SDS011;8661;45.700;4.880;2023-03-23T08:42:23;3.03;;;2.20;;
17091;SDS011;8661;45.700;4.880;2023-03-23T08:44:50;2.73;;;1.73;;
17091;SDS011;8661;45.700;4.880;2023-03-23T08:47:17;5.20;;;2.40;;
17091;SDS011;8661;45.700;4.880;2023-03-23T08:49:45;2.33;;;1.80;;
17091;SDS011;8661;45.700;4.880;2023-03-23T08:52:17;2.40;;;1.60;;
17091;SDS011;8661;45.700;4.880;2023-03-23T08:54:44;3.63;;;1.97;;
17091;SDS011;8661;45.700;4.880;2023-03-23T08:57:12;1.87;;;1.53;;
17091;SDS011;8661;45.700;4.880;2023-03-23T08:59:41;2.80;;;1.83;;
17091;SDS011;8661;45.700;4.880;2023-03-23T09:02:08;2.70;;;1.90;;
17091;SDS011;8661;45.700;4.880;2023-03-23T09:04:36;3.93;;;1.70;;
17091;SDS011;8661;45.700;4.880;2023-03-23T09:07:05;4.47;;;2.40;;
17091;SDS011;8661;45.700;4.880;2023-03-23T09:09:32;3.33;;;1.90;;
17091;SDS011;8661;45.700;4.880;2023-03-23T09:12:00;6.00;;;2.27;;
17091;SDS011;8661;45.700;4.880;2023-03-23T09:14:27;3.43;;;1.80;;
17091;SDS011;8661;45.700;4.880;2023-03-23T09:16:54;4.70;;;2.10;;
17091;SDS011;8661;45.700;4.880;2023-03-23T09:19:21;3.90;;;2.07;;
17091;SDS011;8661;45.700;4.880;2023-03-23T09:21:48;7.07;;;2.00;;
17091;SDS011;8661;45.700;4.880;2023-03-23T09:24:16;5.13;;;2.10;;
17091;SDS011;8661;45.700;4.880;2023-03-23T09:26:44;4.03;;;2.03;;
17091;SDS011;8661;45.700;4.880;2023-03-23T09:29:11;2.40;;;2.20;;
17091;SDS011;8661;45.700;4.880;2023-03-23T09:31:39;3.60;;;2.13;;
17091;SDS011;8661;45.700;4.880;2023-03-23T09:34:07;3.03;;;2.20;;
17091;SDS011;8661;45.700;4.880;2023-03-23T09:36:35;3.37;;;2.10;;
17091;SDS011;8661;45.700;4.880;2023-03-23T09:39:03;3.03;;;2.27;;
17091;SDS011;8661;45.700;4.880;2023-03-23T09:41:45;3.93;;;2.40;;
17091;SDS011;8661;45.700;4.880;2023-03-23T09:44:30;3.37;;;2.23;;
17091;SDS011;8661;45.700;4.880;2023-03-23T09:47:08;4.67;;;2.30;;
17091;SDS011;8661;45.700;4.880;2023-03-23T09:49:42;4.67;;;2.20;;
17091;SDS011;8661;45.700;4.880;2023-03-23T09:52:17;3.33;;;2.27;;
17091;SDS011;8661;45.700;4.880;2023-03-23T09:54:46;4.07;;;2.60;;
17091;SDS011;8661;45.700;4.880;2023-03-23T09:57:18;3.37;;;2.50;;
17091;SDS011;8661;45.700;4.880;2023-03-23T09:59:54;6.13;;;2.30;;
17091;SDS011;8661;45.700;4.880;2023-03-23T10:02:29;3.00;;;2.07;;
17091;SDS011;8661;45.700;4.880;2023-03-23T10:05:03;3.07;;;2.40;;
17091;SDS011;8661;45.700;4.880;2023-03-23T10:07:44;4.97;;;2.30;;
17091;SDS011;8661;45.700;4.880;2023-03-23T10:10:12;2.70;;;2.10;;
17091;SDS011;8661;45.700;4.880;2023-03-23T10:12:42;4.70;;;2.23;;
17091;SDS011;8661;45.700;4.880;2023-03-23T10:15:16;5.83;;;2.27;;
17091;SDS011;8661;45.700;4.880;2023-03-23T10:17:45;4.47;;;2.33;;
17091;SDS011;8661;45.700;4.880;2023-03-23T10:20:24;3.27;;;2.17;;
17091;SDS011;8661;45.700;4.880;2023-03-23T10:23:05;4.50;;;3.00;;
17091;SDS011;8661;45.700;4.880;2023-03-23T10:25:41;2.40;;;2.20;;
17091;SDS011;8661;45.700;4.880;2023-03-23T10:28:15;3.77;;;2.40;;
17091;SDS011;8661;45.700;4.880;2023-03-23T10:30:45;4.17;;;2.20;;
17091;SDS011;8661;45.700;4.880;2023-03-23T10:33:15;4.10;;;2.60;;
17091;SDS011;8661;45.700;4.880;2023-03-23T10:35:47;3.20;;;2.37;;
17091;SDS011;8661;45.700;4.880;2023-03-23T10:38:19;3.77;;;2.60;;
17091;SDS011;8661;45.700;4.880;2023-03-23T10:40:50;6.40;;;2.70;;
17091;SDS011;8661;45.700;4.880;2023-03-23T10:43:23;5.97;;;3.10;;
17091;SDS011;8661;45.700;4.880;2023-03-23T10:45:55;7.87;;;2.80;;
17091;SDS011;8661;45.700;4.880;2023-03-23T10:48:28;8.10;;;3.67;;
17091;SDS011;8661;45.700;4.880;2023-03-23T10:50:57;7.77;;;4.73;;
17091;SDS011;8661;45.700;4.880;2023-03-23T10:53:28;6.80;;;4.13;;
17091;SDS011;8661;45.700;4.880;2023-03-23T10:55:58;4.00;;;2.97;;
17091;SDS011;8661;45.700;4.880;2023-03-23T10:58:27;11.20;;;6.77;;
17091;SDS011;8661;45.700;4.880;2023-03-23T11:00:57;5.87;;;3.50;;
17091;SDS011;8661;45.700;4.880;2023-03-23T11:03:39;6.27;;;4.53;;
17091;SDS011;8661;45.700;4.880;2023-03-23T11:06:09;5.57;;;4.27;;
17091;SDS011;8661;45.700;4.880;2023-03-23T11:08:46;8.57;;;5.77;;
17091;SDS011;8661;45.700;4.880;2023-03-23T11:11:16;6.30;;;5.17;;
17091;SDS011;8661;45.700;4.880;2023-03-23T11:13:47;5.00;;;3.90;;
17091;SDS011;8661;45.700;4.880;2023-03-23T11:16:23;4.00;;;3.50;;
17091;SDS011;8661;45.700;4.880;2023-03-23T11:18:50;5.27;;;4.07;;
17091;SDS011;8661;45.700;4.880;2023-03-23T11:21:19;4.70;;;3.53;;
17091;SDS011;8661;45.700;4.880;2023-03-23T11:23:48;3.77;;;3.30;;
17091;SDS011;8661;45.700;4.880;2023-03-23T11:26:20;7.80;;;4.20;;
17091;SDS011;8661;45.700;4.880;2023-03-23T11:28:55;8.77;;;4.40;;
17091;SDS011;8661;45.700;4.880;2023-03-23T11:31:26;5.13;;;3.97;;
17091;SDS011;8661;45.700;4.880;2023-03-23T11:33:57;7.07;;;4.40;;
17091;SDS011;8661;45.700;4.880;2023-03-23T11:36:28;6.60;;;3.90;;
17091;SDS011;8661;45.700;4.880;2023-03-23T11:39:20;7.27;;;3.67;;
17091;SDS011;8661;45.700;4.880;2023-03-23T11:41:48;5.37;;;4.00;;
17091;SDS011;8661;45.700;4.880;2023-03-23T11:44:20;7.90;;;3.83;;
17091;SDS011;8661;45.700;4.880;2023-03-23T11:46:53;6.70;;;3.70;;
17091;SDS011;8661;45.700;4.880;2023-03-23T11:49:30;6.53;;;3.50;;
17091;SDS011;8661;45.700;4.880;2023-03-23T11:52:07;6.03;;;3.73;;
17091;SDS011;8661;45.700;4.880;2023-03-23T11:54:40;5.10;;;3.60;;
17091;SDS011;8661;45.700;4.880;2023-03-23T11:57:13;7.53;;;3.57;;
17091;SDS011;8661;45.700;4.880;2023-03-23T11:59:42;4.40;;;3.43;;
17091;SDS011;8661;45.700;4.880;2023-03-23T12:05:04;4.13;;;3.20;;
17091;SDS011;8661;45.700;4.880;2023-03-23T12:08:02;4.23;;;3.03;;
17091;SDS011;8661;45.700;4.880;2023-03-23T12:10:44;4.10;;;2.70;;
17091;SDS011;8661;45.700;4.880;2023-03-23T12:13:26;5.17;;;3.00;;
17091;SDS011;8661;45.700;4.880;2023-03-23T12:16:09;5.37;;;2.63;;
17091;SDS011;8661;45.700;4.880;2023-03-23T12:18:46;4.20;;;2.70;;
17091;SDS011;8661;45.700;4.880;2023-03-23T12:21:21;3.30;;;2.73;;
17091;SDS011;8661;45.700;4.880;2023-03-23T12:23:57;4.33;;;2.47;;
17091;SDS011;8661;45.700;4.880;2023-03-23T12:26:29;5.10;;;3.00;;
17091;SDS011;8661;45.700;4.880;2023-03-23T12:29:01;5.43;;;2.50;;
17091;SDS011;8661;45.700;4.880;2023-03-23T12:31:54;4.60;;;2.73;;
17091;SDS011;8661;45.700;4.880;2023-03-23T12:34:33;2.53;;;2.23;;
17091;SDS011;8661;45.700;4.880;2023-03-23T12:37:21;5.53;;;2.50;;
17091;SDS011;8661;45.700;4.880;2023-03-23T12:43:05;5.40;;;2.33;;
17091;SDS011;8661;45.700;4.880;2023-03-23T12:45:48;4.37;;;2.50;;
17091;SDS011;8661;45.700;4.880;2023-03-23T12:48:26;4.53;;;2.33;;
17091;SDS011;8661;45.700;4.880;2023-03-23T12:51:03;3.77;;;2.50;;
17091;SDS011;8661;45.700;4.880;2023-03-23T12:53:41;5.83;;;2.50;;
17091;SDS011;8661;45.700;4.880;2023-03-23T12:56:16;4.17;;;2.67;;
17091;SDS011;8661;45.700;4.880;2023-03-23T12:58:47;4.30;;;2.73;;
17091;SDS011;8661;45.700;4.880;2023-03-23T13:01:18;4.90;;;2.47;;
17091;SDS011;8661;45.700;4.880;2023-03-23T13:03:51;4.43;;;2.50;;
17091;SDS011;8661;45.700;4.880;2023-03-23T13:06:23;3.97;;;2.43;;
17091;SDS011;8661;45.700;4.880;2023-03-23T13:08:57;4.07;;;2.60;;
17091;SDS011;8661;45.700;4.880;2023-03-23T13:11:32;5.50;;;2.77;;
17091;SDS011;8661;45.700;4.880;2023-03-23T13:14:03;5.10;;;3.07;;
17091;SDS011;8661;45.700;4.880;2023-03-23T13:16:41;5.47;;;2.73;;
17091;SDS011;8661;45.700;4.880;2023-03-23T13:19:16;4.90;;;2.70;;
17091;SDS011;8661;45.700;4.880;2023-03-23T13:21:50;3.63;;;2.93;;
17091;SDS011;8661;45.700;4.880;2023-03-23T13:24:23;4.40;;;2.90;;
17091;SDS011;8661;45.700;4.880;2023-03-23T13:26:53;8.97;;;3.00;;
17091;SDS011;8661;45.700;4.880;2023-03-23T13:29:22;11.07;;;3.57;;
17091;SDS011;8661;45.700;4.880;2023-03-23T13:32:03;6.03;;;3.40;;
17091;SDS011;8661;45.700;4.880;2023-03-23T13:34:32;5.30;;;3.30;;
17091;SDS011;8661;45.700;4.880;2023-03-23T13:37:02;4.90;;;3.10;;
17091;SDS011;8661;45.700;4.880;2023-03-23T13:39:31;3.30;;;2.90;;
17091;SDS011;8661;45.700;4.880;2023-03-23T13:42:01;5.70;;;3.23;;
17091;SDS011;8661;45.700;4.880;2023-03-23T13:44:41;3.60;;;2.90;;
17091;SDS011;8661;45.700;4.880;2023-03-23T13:47:21;6.10;;;3.30;;
17091;SDS011;8661;45.700;4.880;2023-03-23T13:49:56;6.63;;;3.20;;
17091;SDS011;8661;45.700;4.880;2023-03-23T13:52:25;10.10;;;3.10;;
17091;SDS011;8661;45.700;4.880;2023-03-23T13:58:21;5.90;;;3.50;;
17091;SDS011;8661;45.700;4.880;2023-03-23T14:00:50;6.37;;;3.77;;
17091;SDS011;8661;45.700;4.880;2023-03-23T14:03:33;4.27;;;3.43;;
17091;SDS011;8661;45.700;4.880;2023-03-23T14:06:04;4.23;;;3.67;;
17091;SDS011;8661;45.700;4.880;2023-03-23T14:08:37;5.77;;;3.87;;
17091;SDS011;8661;45.700;4.880;2023-03-23T14:11:11;5.27;;;3.37;;
17091;SDS011;8661;45.700;4.880;2023-03-23T14:13:44;6.40;;;3.80;;
17091;SDS011;8661;45.700;4.880;2023-03-23T14:16:17;4.60;;;3.60;;
17091;SDS011;8661;45.700;4.880;2023-03-23T14:18:51;8.53;;;3.83;;
17091;SDS011;8661;45.700;4.880;2023-03-23T14:21:25;3.77;;;3.23;;
17091;SDS011;8661;45.700;4.880;2023-03-23T14:24:01;5.27;;;3.53;;
17091;SDS011;8661;45.700;4.880;2023-03-23T14:26:29;6.60;;;3.80;;
17091;SDS011;8661;45.700;4.880;2023-03-23T14:29:01;5.57;;;3.83;;
17091;SDS011;8661;45.700;4.880;2023-03-23T14:31:29;5.87;;;4.17;;
17091;SDS011;8661;45.700;4.880;2023-03-23T14:33:56;5.70;;;3.63;;
17091;SDS011;8661;45.700;4.880;2023-03-23T14:36:31;5.83;;;3.87;;
17091;SDS011;8661;45.700;4.880;2023-03-23T14:39:02;5.47;;;3.40;;
17091;SDS011;8661;45.700;4.880;2023-03-23T14:41:32;6.73;;;3.60;;
17091;SDS011;8661;45.700;4.880;2023-03-23T14:44:02;3.47;;;3.00;;
17091;SDS011;8661;45.700;4.880;2023-03-23T14:46:31;10.33;;;3.80;;
17091;SDS011;8661;45.700;4.880;2023-03-23T14:48:59;5.87;;;3.43;;
17091;SDS011;8661;45.700;4.880;2023-03-23T14:51:27;7.87;;;3.43;;
17091;SDS011;8661;45.700;4.880;2023-03-23T14:53:57;3.87;;;3.47;;
17091;SDS011;8661;45.700;4.880;2023-03-23T14:56:30;6.70;;;3.57;;
17091;SDS011;8661;45.700;4.880;2023-03-23T14:59:02;8.27;;;3.60;;
17091;SDS011;8661;45.700;4.880;2023-03-23T15:01:31;6.13;;;3.77;;
17091;SDS011;8661;45.700;4.880;2023-03-23T15:04:00;7.33;;;3.73;;
17091;SDS011;8661;45.700;4.880;2023-03-23T15:06:31;7.13;;;3.90;;
17091;SDS011;8661;45.700;4.880;2023-03-23T15:09:04;5.10;;;3.70;;
17091;SDS011;8661;45.700;4.880;2023-03-23T15:11:34;6.43;;;3.53;;
17091;SDS011;8661;45.700;4.880;2023-03-23T15:14:07;5.57;;;3.60;;
17091;SDS011;8661;45.700;4.880;2023-03-23T15:16:39;6.93;;;3.90;;
17091;SDS011;8661;45.700;4.880;2023-03-23T15:19:12;5.07;;;3.57;;
17091;SDS011;8661;45.700;4.880;2023-03-23T15:21:47;6.23;;;3.40;;
17091;SDS011;8661;45.700;4.880;2023-03-23T15:24:21;4.20;;;3.70;;
17091;SDS011;8661;45.700;4.880;2023-03-23T15:27:02;4.70;;;3.57;;
17091;SDS011;8661;45.700;4.880;2023-03-23T15:29:45;5.57;;;3.87;;
17091;SDS011;8661;45.700;4.880;2023-03-23T15:32:13;5.40;;;3.60;;